sensor_id;sensor_type;location;lat;lon;timestamp;P1;durP1;ratioP1;P2;durP2;ratioP2
25838;SDS011;13669;50.186;27.062;2022-08-01T00:01:13;10.77;;;7.57;;
25838;SDS011;13669;50.186;27.062;2022-08-01T00:03:40;10.88;;;7.40;;
25838;SDS011;13669;50.186;27.062;2022-08-01T00:06:08;12.90;;;7.40;;
25838;SDS011;13669;50.186;27.062;2022-08-01T00:08:35;9.25;;;7.03;;
25838;SDS011;13669;50.186;27.062;2022-08-01T00:11:03;8.38;;;7.22;;
25838;SDS011;13669;50.186;27.062;2022-08-01T00:13:30;10.73;;;7.18;;
25838;SDS011;13669;50.186;27.062;2022-08-01T00:15:58;8.32;;;7.43;;
25838;SDS011;13669;50.186;27.062;2022-08-01T00:18:25;11.35;;;7.90;;
25838;SDS011;13669;50.186;27.062;2022-08-01T00:20:53;10.05;;;7.13;;
25838;SDS011;13669;50.186;27.062;2022-08-01T00:23:20;8.85;;;7.20;;
25838;SDS011;13669;50.186;27.062;2022-08-01T00:25:48;8.38;;;7.15;;
25838;SDS011;13669;50.186;27.062;2022-08-01T00:28:15;8.70;;;7.07;;
25838;SDS011;13669;50.186;27.062;2022-08-01T00:30:43;11.02;;;7.28;;
25838;SDS011;13669;50.186;27.062;2022-08-01T00:33:10;11.10;;;6.88;;
25838;SDS011;13669;50.186;27.062;2022-08-01T00:35:38;8.35;;;6.28;;
25838;SDS011;13669;50.186;27.062;2022-08-01T00:38:05;10.07;;;6.90;;
25838;SDS011;13669;50.186;27.062;2022-08-01T00:40:33;9.52;;;6.97;;
25838;SDS011;13669;50.186;27.062;2022-08-01T00:43:00;9.30;;;7.00;;
25838;SDS011;13669;50.186;27.062;2022-08-01T00:45:28;8.57;;;7.32;;
25838;SDS011;13669;50.186;27.062;2022-08-01T00:47:55;10.60;;;7.22;;
25838;SDS011;13669;50.186;27.062;2022-08-01T00:50:23;9.32;;;7.40;;
25838;SDS011;13669;50.186;27.062;2022-08-01T00:52:50;8.45;;;6.97;;
25838;SDS011;13669;50.186;27.062;2022-08-01T00:55:18;11.68;;;7.38;;
25838;SDS011;13669;50.186;27.062;2022-08-01T00:57:47;11.18;;;7.18;;
25838;SDS011;13669;50.186;27.062;2022-08-01T01:00:31;9.70;;;7.00;;
25838;SDS011;13669;50.186;27.062;2022-08-01T01:03:20;8.23;;;6.75;;
25838;SDS011;13669;50.186;27.062;2022-08-01T01:06:17;10.02;;;6.60;;
25838;SDS011;13669;50.186;27.062;2022-08-01T01:11:57;7.68;;;6.47;;
25838;SDS011;13669;50.186;27.062;2022-08-01T01:15:08;10.02;;;7.10;;
25838;SDS011;13669;50.186;27.062;2022-08-01T01:17:55;10.23;;;6.95;;
25838;SDS011;13669;50.186;27.062;2022-08-01T01:20:35;10.07;;;6.70;;
25838;SDS011;13669;50.186;27.062;2022-08-01T01:31:48;8.07;;;7.00;;
25838;SDS011;13669;50.186;27.062;2022-08-01T01:34:22;11.55;;;6.88;;
25838;SDS011;13669;50.186;27.062;2022-08-01T01:36:52;9.18;;;7.43;;
25838;SDS011;13669;50.186;27.062;2022-08-01T01:39:23;9.20;;;6.82;;
25838;SDS011;13669;50.186;27.062;2022-08-01T01:41:53;11.38;;;7.65;;
25838;SDS011;13669;50.186;27.062;2022-08-01T01:44:23;9.68;;;7.30;;
25838;SDS011;13669;50.186;27.062;2022-08-01T01:46:52;10.38;;;6.70;;
25838;SDS011;13669;50.186;27.062;2022-08-01T01:49:23;13.20;;;6.85;;
25838;SDS011;13669;50.186;27.062;2022-08-01T01:54:30;8.43;;;6.63;;
25838;SDS011;13669;50.186;27.062;2022-08-01T01:57:01;12.88;;;7.43;;
25838;SDS011;13669;50.186;27.062;2022-08-01T01:59:31;11.37;;;6.90;;
25838;SDS011;13669;50.186;27.062;2022-08-01T02:02:02;10.68;;;7.07;;
25838;SDS011;13669;50.186;27.062;2022-08-01T02:04:33;11.88;;;7.55;;
25838;SDS011;13669;50.186;27.062;2022-08-01T02:07:03;10.93;;;7.63;;
25838;SDS011;13669;50.186;27.062;2022-08-01T02:09:33;9.18;;;7.07;;
25838;SDS011;13669;50.186;27.062;2022-08-01T02:12:02;11.35;;;7.32;;
25838;SDS011;13669;50.186;27.062;2022-08-01T02:14:35;11.38;;;8.15;;
25838;SDS011;13669;50.186;27.062;2022-08-01T02:17:04;11.00;;;7.60;;
25838;SDS011;13669;50.186;27.062;2022-08-01T02:19:32;12.80;;;7.90;;
25838;SDS011;13669;50.186;27.062;2022-08-01T02:22:06;11.93;;;7.57;;
25838;SDS011;13669;50.186;27.062;2022-08-01T02:24:42;10.05;;;7.63;;
25838;SDS011;13669;50.186;27.062;2022-08-01T02:27:11;10.80;;;7.85;;
25838;SDS011;13669;50.186;27.062;2022-08-01T02:32:40;9.20;;;7.68;;
25838;SDS011;13669;50.186;27.062;2022-08-01T02:35:13;12.05;;;7.65;;
25838;SDS011;13669;50.186;27.062;2022-08-01T02:37:48;14.88;;;8.15;;
25838;SDS011;13669;50.186;27.062;2022-08-01T02:40:16;10.80;;;8.43;;
25838;SDS011;13669;50.186;27.062;2022-08-01T02:42:45;11.95;;;8.32;;
25838;SDS011;13669;50.186;27.062;2022-08-01T02:45:17;10.73;;;8.15;;
25838;SDS011;13669;50.186;27.062;2022-08-01T02:47:47;11.45;;;8.32;;
25838;SDS011;13669;50.186;27.062;2022-08-01T02:50:16;10.25;;;7.88;;
25838;SDS011;13669;50.186;27.062;2022-08-01T02:52:48;9.95;;;8.02;;
25838;SDS011;13669;50.186;27.062;2022-08-01T02:55:18;10.02;;;8.13;;
25838;SDS011;13669;50.186;27.062;2022-08-01T02:57:47;11.27;;;7.80;;
25838;SDS011;13669;50.186;27.062;2022-08-01T03:00:22;11.02;;;8.00;;
25838;SDS011;13669;50.186;27.062;2022-08-01T03:02:51;8.27;;;7.40;;
25838;SDS011;13669;50.186;27.062;2022-08-01T03:05:22;10.77;;;7.88;;
25838;SDS011;13669;50.186;27.062;2022-08-01T03:07:52;11.57;;;7.95;;
25838;SDS011;13669;50.186;27.062;2022-08-01T03:10:28;9.82;;;8.07;;
25838;SDS011;13669;50.186;27.062;2022-08-01T03:12:57;9.63;;;7.80;;
25838;SDS011;13669;50.186;27.062;2022-08-01T03:15:27;10.43;;;8.00;;
25838;SDS011;13669;50.186;27.062;2022-08-01T03:17:57;11.02;;;8.25;;
25838;SDS011;13669;50.186;27.062;2022-08-01T03:20:27;10.60;;;8.23;;
25838;SDS011;13669;50.186;27.062;2022-08-01T03:22:56;10.90;;;7.88;;
25838;SDS011;13669;50.186;27.062;2022-08-01T03:25:26;10.02;;;8.20;;
25838;SDS011;13669;50.186;27.062;2022-08-01T03:27:56;13.13;;;8.75;;
25838;SDS011;13669;50.186;27.062;2022-08-01T03:30:27;10.95;;;8.95;;
25838;SDS011;13669;50.186;27.062;2022-08-01T03:32:57;11.73;;;8.35;;
25838;SDS011;13669;50.186;27.062;2022-08-01T03:35:28;9.38;;;8.00;;
25838;SDS011;13669;50.186;27.062;2022-08-01T03:38:00;10.60;;;8.57;;
25838;SDS011;13669;50.186;27.062;2022-08-01T03:40:47;10.52;;;8.35;;
25838;SDS011;13669;50.186;27.062;2022-08-01T03:43:25;9.57;;;8.00;;
25838;SDS011;13669;50.186;27.062;2022-08-01T03:46:04;11.35;;;8.00;;
25838;SDS011;13669;50.186;27.062;2022-08-01T03:48:35;11.70;;;7.90;;
25838;SDS011;13669;50.186;27.062;2022-08-01T03:51:06;10.85;;;7.88;;
25838;SDS011;13669;50.186;27.062;2022-08-01T03:53:36;10.02;;;8.20;;
25838;SDS011;13669;50.186;27.062;2022-08-01T03:56:08;10.45;;;8.35;;
25838;SDS011;13669;50.186;27.062;2022-08-01T03:58:39;12.25;;;8.88;;
25838;SDS011;13669;50.186;27.062;2022-08-01T04:01:07;13.50;;;8.35;;
25838;SDS011;13669;50.186;27.062;2022-08-01T04:03:42;12.98;;;8.15;;
25838;SDS011;13669;50.186;27.062;2022-08-01T04:06:11;11.27;;;8.05;;
25838;SDS011;13669;50.186;27.062;2022-08-01T04:08:41;11.93;;;8.50;;
25838;SDS011;13669;50.186;27.062;2022-08-01T04:11:09;11.48;;;8.50;;
25838;SDS011;13669;50.186;27.062;2022-08-01T04:13:37;10.10;;;8.63;;
25838;SDS011;13669;50.186;27.062;2022-08-01T04:16:04;15.27;;;10.18;;
25838;SDS011;13669;50.186;27.062;2022-08-01T04:18:32;10.95;;;8.40;;
25838;SDS011;13669;50.186;27.062;2022-08-01T04:20:59;11.63;;;8.60;;
25838;SDS011;13669;50.186;27.062;2022-08-01T04:23:27;12.80;;;8.77;;
25838;SDS011;13669;50.186;27.062;2022-08-01T04:25:58;13.07;;;8.07;;
25838;SDS011;13669;50.186;27.062;2022-08-01T04:28:27;11.23;;;8.27;;
25838;SDS011;13669;50.186;27.062;2022-08-01T04:30:56;13.07;;;8.00;;
25838;SDS011;13669;50.186;27.062;2022-08-01T04:33:28;10.38;;;7.68;;
25838;SDS011;13669;50.186;27.062;2022-08-01T04:35:58;9.47;;;7.00;;
25838;SDS011;13669;50.186;27.062;2022-08-01T04:38:32;10.23;;;7.13;;
25838;SDS011;13669;50.186;27.062;2022-08-01T04:41:03;8.95;;;6.40;;
25838;SDS011;13669;50.186;27.062;2022-08-01T04:43:38;7.90;;;6.75;;
25838;SDS011;13669;50.186;27.062;2022-08-01T04:46:06;9.88;;;6.65;;
25838;SDS011;13669;50.186;27.062;2022-08-01T04:48:36;10.40;;;6.78;;
25838;SDS011;13669;50.186;27.062;2022-08-01T04:51:10;8.80;;;6.57;;
25838;SDS011;13669;50.186;27.062;2022-08-01T04:53:40;9.93;;;6.32;;
25838;SDS011;13669;50.186;27.062;2022-08-01T04:56:08;9.43;;;6.55;;
25838;SDS011;13669;50.186;27.062;2022-08-01T04:58:35;7.88;;;6.55;;
25838;SDS011;13669;50.186;27.062;2022-08-01T05:01:03;8.50;;;5.97;;
25838;SDS011;13669;50.186;27.062;2022-08-01T05:03:30;10.43;;;7.10;;
25838;SDS011;13669;50.186;27.062;2022-08-01T05:06:04;8.05;;;4.90;;
25838;SDS011;13669;50.186;27.062;2022-08-01T05:08:32;7.05;;;4.63;;
25838;SDS011;13669;50.186;27.062;2022-08-01T05:10:59;6.22;;;5.05;;
25838;SDS011;13669;50.186;27.062;2022-08-01T05:13:28;10.70;;;5.28;;
25838;SDS011;13669;50.186;27.062;2022-08-01T05:15:55;8.38;;;5.00;;
25838;SDS011;13669;50.186;27.062;2022-08-01T05:18:23;6.82;;;5.35;;
25838;SDS011;13669;50.186;27.062;2022-08-01T05:20:54;7.55;;;5.25;;
25838;SDS011;13669;50.186;27.062;2022-08-01T05:23:22;6.82;;;5.07;;
25838;SDS011;13669;50.186;27.062;2022-08-01T05:26:08;6.90;;;4.70;;
25838;SDS011;13669;50.186;27.062;2022-08-01T05:28:41;5.88;;;4.70;;
25838;SDS011;13669;50.186;27.062;2022-08-01T05:31:09;6.35;;;5.25;;
25838;SDS011;13669;50.186;27.062;2022-08-01T05:33:36;8.45;;;5.20;;
25838;SDS011;13669;50.186;27.062;2022-08-01T05:36:04;7.22;;;5.38;;
25838;SDS011;13669;50.186;27.062;2022-08-01T05:38:31;7.47;;;5.10;;
25838;SDS011;13669;50.186;27.062;2022-08-01T05:40:59;6.10;;;4.97;;
25838;SDS011;13669;50.186;27.062;2022-08-01T05:43:26;8.30;;;5.32;;
25838;SDS011;13669;50.186;27.062;2022-08-01T05:45:55;7.72;;;4.90;;
25838;SDS011;13669;50.186;27.062;2022-08-01T05:48:22;7.28;;;5.70;;
25838;SDS011;13669;50.186;27.062;2022-08-01T05:50:50;7.88;;;5.78;;
25838;SDS011;13669;50.186;27.062;2022-08-01T05:53:24;8.27;;;5.40;;
25838;SDS011;13669;50.186;27.062;2022-08-01T05:55:51;9.02;;;6.05;;
25838;SDS011;13669;50.186;27.062;2022-08-01T05:58:18;11.77;;;5.78;;
25838;SDS011;13669;50.186;27.062;2022-08-01T06:00:46;7.80;;;6.05;;
25838;SDS011;13669;50.186;27.062;2022-08-01T06:03:13;8.27;;;6.70;;
25838;SDS011;13669;50.186;27.062;2022-08-01T06:05:41;7.88;;;6.57;;
25838;SDS011;13669;50.186;27.062;2022-08-01T06:08:08;12.07;;;6.03;;
25838;SDS011;13669;50.186;27.062;2022-08-01T06:10:36;6.68;;;5.80;;
25838;SDS011;13669;50.186;27.062;2022-08-01T06:13:03;8.85;;;5.80;;
25838;SDS011;13669;50.186;27.062;2022-08-01T06:15:31;6.25;;;5.57;;
25838;SDS011;13669;50.186;27.062;2022-08-01T06:17:59;6.70;;;5.72;;
25838;SDS011;13669;50.186;27.062;2022-08-01T06:20:26;7.43;;;5.97;;
25838;SDS011;13669;50.186;27.062;2022-08-01T06:22:54;6.07;;;5.07;;
25838;SDS011;13669;50.186;27.062;2022-08-01T06:25:22;6.00;;;5.30;;
25838;SDS011;13669;50.186;27.062;2022-08-01T06:27:49;8.57;;;5.80;;
25838;SDS011;13669;50.186;27.062;2022-08-01T06:30:17;7.18;;;5.70;;
25838;SDS011;13669;50.186;27.062;2022-08-01T06:32:45;6.65;;;5.32;;
25838;SDS011;13669;50.186;27.062;2022-08-01T06:35:14;9.48;;;5.40;;
25838;SDS011;13669;50.186;27.062;2022-08-01T06:37:42;7.30;;;5.07;;
25838;SDS011;13669;50.186;27.062;2022-08-01T06:40:11;6.60;;;5.80;;
25838;SDS011;13669;50.186;27.062;2022-08-01T06:42:43;8.32;;;5.20;;
25838;SDS011;13669;50.186;27.062;2022-08-01T06:45:12;6.80;;;5.65;;
25838;SDS011;13669;50.186;27.062;2022-08-01T06:47:41;6.35;;;5.18;;
25838;SDS011;13669;50.186;27.062;2022-08-01T06:50:14;8.40;;;5.75;;
25838;SDS011;13669;50.186;27.062;2022-08-01T06:52:41;8.13;;;6.43;;
25838;SDS011;13669;50.186;27.062;2022-08-01T06:55:09;6.78;;;5.88;;
25838;SDS011;13669;50.186;27.062;2022-08-01T06:57:44;10.63;;;5.35;;
25838;SDS011;13669;50.186;27.062;2022-08-01T07:00:13;5.90;;;5.30;;
25838;SDS011;13669;50.186;27.062;2022-08-01T07:02:42;7.30;;;5.15;;
25838;SDS011;13669;50.186;27.062;2022-08-01T07:05:10;10.18;;;7.20;;
25838;SDS011;13669;50.186;27.062;2022-08-01T07:07:37;7.53;;;5.05;;
25838;SDS011;13669;50.186;27.062;2022-08-01T07:10:05;6.15;;;5.22;;
25838;SDS011;13669;50.186;27.062;2022-08-01T07:12:35;5.15;;;4.65;;
25838;SDS011;13669;50.186;27.062;2022-08-01T07:15:05;7.05;;;5.20;;
25838;SDS011;13669;50.186;27.062;2022-08-01T07:17:36;4.72;;;3.97;;
25838;SDS011;13669;50.186;27.062;2022-08-01T07:20:08;6.13;;;4.10;;
25838;SDS011;13669;50.186;27.062;2022-08-01T07:22:39;6.90;;;4.80;;
25838;SDS011;13669;50.186;27.062;2022-08-01T07:25:07;5.88;;;4.13;;
25838;SDS011;13669;50.186;27.062;2022-08-01T07:27:35;8.50;;;4.57;;
25838;SDS011;13669;50.186;27.062;2022-08-01T07:30:03;5.05;;;4.40;;
25838;SDS011;13669;50.186;27.062;2022-08-01T07:32:32;6.47;;;4.43;;
25838;SDS011;13669;50.186;27.062;2022-08-01T07:35:02;4.97;;;3.72;;
25838;SDS011;13669;50.186;27.062;2022-08-01T07:37:30;7.80;;;4.25;;
25838;SDS011;13669;50.186;27.062;2022-08-01T07:40:15;6.82;;;6.07;;
25838;SDS011;13669;50.186;27.062;2022-08-01T07:42:44;6.97;;;6.10;;
25838;SDS011;13669;50.186;27.062;2022-08-01T07:45:12;6.10;;;5.35;;
25838;SDS011;13669;50.186;27.062;2022-08-01T07:47:41;6.78;;;6.00;;
25838;SDS011;13669;50.186;27.062;2022-08-01T07:50:09;7.05;;;5.28;;
25838;SDS011;13669;50.186;27.062;2022-08-01T07:52:36;6.68;;;5.70;;
25838;SDS011;13669;50.186;27.062;2022-08-01T07:55:04;7.15;;;5.28;;
25838;SDS011;13669;50.186;27.062;2022-08-01T07:57:32;5.88;;;4.97;;
25838;SDS011;13669;50.186;27.062;2022-08-01T08:00:00;6.85;;;5.72;;
25838;SDS011;13669;50.186;27.062;2022-08-01T08:02:28;5.30;;;4.80;;
25838;SDS011;13669;50.186;27.062;2022-08-01T08:04:55;7.80;;;6.43;;
25838;SDS011;13669;50.186;27.062;2022-08-01T08:07:23;9.23;;;6.38;;
25838;SDS011;13669;50.186;27.062;2022-08-01T08:09:50;8.00;;;6.43;;
25838;SDS011;13669;50.186;27.062;2022-08-01T08:12:18;9.20;;;6.28;;
25838;SDS011;13669;50.186;27.062;2022-08-01T08:14:55;7.88;;;6.15;;
25838;SDS011;13669;50.186;27.062;2022-08-01T08:17:25;7.40;;;5.45;;
25838;SDS011;13669;50.186;27.062;2022-08-01T08:19:53;7.40;;;5.78;;
25838;SDS011;13669;50.186;27.062;2022-08-01T08:22:20;6.95;;;5.85;;
25838;SDS011;13669;50.186;27.062;2022-08-01T08:24:48;7.15;;;6.15;;
25838;SDS011;13669;50.186;27.062;2022-08-01T08:27:15;8.13;;;6.63;;
25838;SDS011;13669;50.186;27.062;2022-08-01T08:29:44;7.03;;;6.20;;
25838;SDS011;13669;50.186;27.062;2022-08-01T08:32:12;7.82;;;6.38;;
25838;SDS011;13669;50.186;27.062;2022-08-01T08:34:40;7.47;;;6.18;;
25838;SDS011;13669;50.186;27.062;2022-08-01T08:37:07;7.72;;;5.85;;
25838;SDS011;13669;50.186;27.062;2022-08-01T08:39:35;8.07;;;5.82;;
25838;SDS011;13669;50.186;27.062;2022-08-01T08:42:08;8.38;;;6.07;;
25838;SDS011;13669;50.186;27.062;2022-08-01T08:44:36;8.77;;;5.80;;
25838;SDS011;13669;50.186;27.062;2022-08-01T08:47:10;7.32;;;6.32;;
25838;SDS011;13669;50.186;27.062;2022-08-01T08:49:45;8.02;;;7.00;;
25838;SDS011;13669;50.186;27.062;2022-08-01T08:52:15;7.37;;;6.60;;
25838;SDS011;13669;50.186;27.062;2022-08-01T08:57:14;6.93;;;6.00;;
25838;SDS011;13669;50.186;27.062;2022-08-01T08:59:42;8.52;;;6.80;;
25838;SDS011;13669;50.186;27.062;2022-08-01T09:02:10;7.28;;;6.57;;
25838;SDS011;13669;50.186;27.062;2022-08-01T09:04:39;8.10;;;6.28;;
25838;SDS011;13669;50.186;27.062;2022-08-01T09:07:08;7.93;;;6.00;;
25838;SDS011;13669;50.186;27.062;2022-08-01T09:09:37;8.32;;;6.72;;
25838;SDS011;13669;50.186;27.062;2022-08-01T09:12:07;7.30;;;5.13;;
25838;SDS011;13669;50.186;27.062;2022-08-01T09:14:43;7.13;;;5.65;;
25838;SDS011;13669;50.186;27.062;2022-08-01T09:17:12;6.57;;;5.75;;
25838;SDS011;13669;50.186;27.062;2022-08-01T09:19:41;9.25;;;6.63;;
25838;SDS011;13669;50.186;27.062;2022-08-01T09:22:09;9.57;;;6.15;;
25838;SDS011;13669;50.186;27.062;2022-08-01T09:24:39;8.52;;;6.65;;
25838;SDS011;13669;50.186;27.062;2022-08-01T09:27:15;7.65;;;6.57;;
25838;SDS011;13669;50.186;27.062;2022-08-01T09:29:48;7.47;;;5.80;;
25838;SDS011;13669;50.186;27.062;2022-08-01T09:32:30;6.57;;;5.55;;
25838;SDS011;13669;50.186;27.062;2022-08-01T09:38:15;8.00;;;6.47;;
25838;SDS011;13669;50.186;27.062;2022-08-01T09:43:19;7.22;;;6.22;;
25838;SDS011;13669;50.186;27.062;2022-08-01T09:45:47;8.30;;;6.75;;
25838;SDS011;13669;50.186;27.062;2022-08-01T09:48:19;8.18;;;7.28;;
25838;SDS011;13669;50.186;27.062;2022-08-01T09:50:53;9.07;;;8.18;;
25838;SDS011;13669;50.186;27.062;2022-08-01T09:53:40;10.23;;;8.40;;
25838;SDS011;13669;50.186;27.062;2022-08-01T09:56:18;9.13;;;8.23;;
25838;SDS011;13669;50.186;27.062;2022-08-01T09:59:06;11.65;;;8.07;;
25838;SDS011;13669;50.186;27.062;2022-08-01T10:01:46;9.88;;;7.95;;
25838;SDS011;13669;50.186;27.062;2022-08-01T10:04:19;10.65;;;7.75;;
25838;SDS011;13669;50.186;27.062;2022-08-01T10:06:49;9.15;;;7.20;;
25838;SDS011;13669;50.186;27.062;2022-08-01T10:09:28;8.98;;;7.65;;
25838;SDS011;13669;50.186;27.062;2022-08-01T10:12:07;11.40;;;7.20;;
25838;SDS011;13669;50.186;27.062;2022-08-01T10:14:42;8.38;;;6.45;;
25838;SDS011;13669;50.186;27.062;2022-08-01T10:17:13;7.50;;;6.75;;
25838;SDS011;13669;50.186;27.062;2022-08-01T10:19:46;7.80;;;6.78;;
25838;SDS011;13669;50.186;27.062;2022-08-01T10:22:17;7.55;;;6.80;;
25838;SDS011;13669;50.186;27.062;2022-08-01T10:24:47;10.50;;;7.27;;
25838;SDS011;13669;50.186;27.062;2022-08-01T10:27:16;8.15;;;6.88;;
25838;SDS011;13669;50.186;27.062;2022-08-01T10:30:04;8.55;;;7.47;;
25838;SDS011;13669;50.186;27.062;2022-08-01T10:32:49;9.90;;;8.25;;
25838;SDS011;13669;50.186;27.062;2022-08-01T10:35:21;8.18;;;7.22;;
25838;SDS011;13669;50.186;27.062;2022-08-01T10:38:08;9.52;;;7.53;;
25838;SDS011;13669;50.186;27.062;2022-08-01T10:40:40;9.00;;;7.63;;
25838;SDS011;13669;50.186;27.062;2022-08-01T10:43:09;8.55;;;7.65;;
25838;SDS011;13669;50.186;27.062;2022-08-01T10:45:38;9.88;;;7.30;;
25838;SDS011;13669;50.186;27.062;2022-08-01T10:48:10;11.43;;;7.82;;
25838;SDS011;13669;50.186;27.062;2022-08-01T10:50:48;10.07;;;7.68;;
25838;SDS011;13669;50.186;27.062;2022-08-01T10:53:24;11.23;;;7.57;;
25838;SDS011;13669;50.186;27.062;2022-08-01T10:56:08;9.88;;;7.53;;
25838;SDS011;13669;50.186;27.062;2022-08-01T10:58:42;8.88;;;6.78;;
25838;SDS011;13669;50.186;27.062;2022-08-01T11:01:15;8.40;;;7.30;;
25838;SDS011;13669;50.186;27.062;2022-08-01T11:04:08;8.23;;;7.38;;
25838;SDS011;13669;50.186;27.062;2022-08-01T11:09:40;8.63;;;7.35;;
25838;SDS011;13669;50.186;27.062;2022-08-01T11:12:18;7.90;;;6.78;;
25838;SDS011;13669;50.186;27.062;2022-08-01T11:20:15;8.75;;;6.63;;
25838;SDS011;13669;50.186;27.062;2022-08-01T11:28:24;7.80;;;6.78;;
25838;SDS011;13669;50.186;27.062;2022-08-01T11:41:23;7.47;;;6.28;;
25838;SDS011;13669;50.186;27.062;2022-08-01T11:47:07;8.45;;;6.70;;
25838;SDS011;13669;50.186;27.062;2022-08-01T11:52:26;8.25;;;6.95;;
25838;SDS011;13669;50.186;27.062;2022-08-01T11:54:57;9.52;;;6.57;;
25838;SDS011;13669;50.186;27.062;2022-08-01T11:57:36;10.33;;;6.50;;
25838;SDS011;13669;50.186;27.062;2022-08-01T12:00:12;6.80;;;6.07;;
25838;SDS011;13669;50.186;27.062;2022-08-01T12:02:45;8.77;;;5.75;;
25838;SDS011;13669;50.186;27.062;2022-08-01T12:05:14;8.50;;;6.05;;
25838;SDS011;13669;50.186;27.062;2022-08-01T12:07:47;9.45;;;6.30;;
25838;SDS011;13669;50.186;27.062;2022-08-01T12:10:20;7.25;;;5.95;;
25838;SDS011;13669;50.186;27.062;2022-08-01T12:12:53;8.85;;;5.63;;
25838;SDS011;13669;50.186;27.062;2022-08-01T12:15:29;9.70;;;5.55;;
25838;SDS011;13669;50.186;27.062;2022-08-01T12:17:59;6.72;;;5.72;;
25838;SDS011;13669;50.186;27.062;2022-08-01T12:20:40;6.28;;;5.68;;
25838;SDS011;13669;50.186;27.062;2022-08-01T12:23:22;6.65;;;5.55;;
25838;SDS011;13669;50.186;27.062;2022-08-01T12:25:53;6.22;;;5.60;;
25838;SDS011;13669;50.186;27.062;2022-08-01T12:28:20;6.78;;;5.10;;
25838;SDS011;13669;50.186;27.062;2022-08-01T12:30:49;7.00;;;5.85;;
25838;SDS011;13669;50.186;27.062;2022-08-01T12:33:18;7.78;;;5.65;;
25838;SDS011;13669;50.186;27.062;2022-08-01T12:35:46;6.25;;;5.00;;
25838;SDS011;13669;50.186;27.062;2022-08-01T12:38:21;7.78;;;5.40;;
25838;SDS011;13669;50.186;27.062;2022-08-01T12:40:49;7.78;;;5.25;;
25838;SDS011;13669;50.186;27.062;2022-08-01T12:43:20;6.43;;;5.72;;
25838;SDS011;13669;50.186;27.062;2022-08-01T12:45:55;7.90;;;5.55;;
25838;SDS011;13669;50.186;27.062;2022-08-01T12:48:26;7.85;;;5.00;;
25838;SDS011;13669;50.186;27.062;2022-08-01T12:50:54;8.40;;;5.50;;
25838;SDS011;13669;50.186;27.062;2022-08-01T12:53:25;6.03;;;5.10;;
25838;SDS011;13669;50.186;27.062;2022-08-01T12:56:07;6.03;;;5.43;;
25838;SDS011;13669;50.186;27.062;2022-08-01T12:58:37;6.78;;;5.35;;
25838;SDS011;13669;50.186;27.062;2022-08-01T13:01:06;7.93;;;5.25;;
25838;SDS011;13669;50.186;27.062;2022-08-01T13:03:36;7.93;;;4.95;;
25838;SDS011;13669;50.186;27.062;2022-08-01T13:06:12;6.55;;;5.07;;
25838;SDS011;13669;50.186;27.062;2022-08-01T13:08:42;6.82;;;4.70;;
25838;SDS011;13669;50.186;27.062;2022-08-01T13:11:11;5.45;;;4.25;;
25838;SDS011;13669;50.186;27.062;2022-08-01T13:13:45;5.50;;;4.60;;
25838;SDS011;13669;50.186;27.062;2022-08-01T13:16:15;8.95;;;4.80;;
25838;SDS011;13669;50.186;27.062;2022-08-01T13:19:04;6.05;;;4.40;;
25838;SDS011;13669;50.186;27.062;2022-08-01T13:21:33;5.15;;;4.43;;
25838;SDS011;13669;50.186;27.062;2022-08-01T13:24:26;5.93;;;3.83;;
25838;SDS011;13669;50.186;27.062;2022-08-01T13:26:56;4.55;;;3.20;;
25838;SDS011;13669;50.186;27.062;2022-08-01T13:32:12;6.72;;;3.75;;
25838;SDS011;13669;50.186;27.062;2022-08-01T13:35:06;7.20;;;4.40;;
25838;SDS011;13669;50.186;27.062;2022-08-01T13:37:35;7.30;;;4.45;;
25838;SDS011;13669;50.186;27.062;2022-08-01T13:40:07;5.28;;;3.58;;
25838;SDS011;13669;50.186;27.062;2022-08-01T13:42:36;4.03;;;3.10;;
25838;SDS011;13669;50.186;27.062;2022-08-01T13:45:04;3.70;;;3.10;;
25838;SDS011;13669;50.186;27.062;2022-08-01T13:47:41;4.85;;;2.88;;
25838;SDS011;13669;50.186;27.062;2022-08-01T13:50:29;3.58;;;2.83;;
25838;SDS011;13669;50.186;27.062;2022-08-01T13:52:57;3.17;;;2.88;;
25838;SDS011;13669;50.186;27.062;2022-08-01T13:55:24;3.15;;;2.60;;
25838;SDS011;13669;50.186;27.062;2022-08-01T13:57:59;4.32;;;3.05;;
25838;SDS011;13669;50.186;27.062;2022-08-01T14:00:27;4.75;;;3.25;;
25838;SDS011;13669;50.186;27.062;2022-08-01T14:02:54;5.45;;;3.30;;
25838;SDS011;13669;50.186;27.062;2022-08-01T14:05:22;4.28;;;3.53;;
25838;SDS011;13669;50.186;27.062;2022-08-01T14:07:49;3.63;;;3.13;;
25838;SDS011;13669;50.186;27.062;2022-08-01T14:10:23;3.92;;;2.33;;
25838;SDS011;13669;50.186;27.062;2022-08-01T14:12:50;3.53;;;3.00;;
25838;SDS011;13669;50.186;27.062;2022-08-01T14:15:22;3.70;;;2.60;;
25838;SDS011;13669;50.186;27.062;2022-08-01T14:18:04;4.15;;;3.00;;
25838;SDS011;13669;50.186;27.062;2022-08-01T14:20:33;7.22;;;3.50;;
25838;SDS011;13669;50.186;27.062;2022-08-01T14:23:01;4.90;;;3.22;;
25838;SDS011;13669;50.186;27.062;2022-08-01T14:25:34;2.47;;;2.28;;
25838;SDS011;13669;50.186;27.062;2022-08-01T14:28:23;4.57;;;2.42;;
25838;SDS011;13669;50.186;27.062;2022-08-01T14:30:51;2.42;;;2.22;;
25838;SDS011;13669;50.186;27.062;2022-08-01T14:33:18;4.97;;;2.72;;
25838;SDS011;13669;50.186;27.062;2022-08-01T14:35:46;5.47;;;3.45;;
25838;SDS011;13669;50.186;27.062;2022-08-01T14:38:33;7.80;;;3.25;;
25838;SDS011;13669;50.186;27.062;2022-08-01T14:41:01;7.07;;;2.90;;
25838;SDS011;13669;50.186;27.062;2022-08-01T14:43:30;3.33;;;2.33;;
25838;SDS011;13669;50.186;27.062;2022-08-01T14:46:00;3.78;;;2.42;;
25838;SDS011;13669;50.186;27.062;2022-08-01T14:48:29;3.92;;;2.33;;
25838;SDS011;13669;50.186;27.062;2022-08-01T14:50:57;3.13;;;2.28;;
25838;SDS011;13669;50.186;27.062;2022-08-01T14:53:27;3.08;;;2.20;;
25838;SDS011;13669;50.186;27.062;2022-08-01T14:55:54;3.60;;;2.33;;
25838;SDS011;13669;50.186;27.062;2022-08-01T14:58:22;2.10;;;1.90;;
25838;SDS011;13669;50.186;27.062;2022-08-01T15:00:49;3.95;;;2.25;;
25838;SDS011;13669;50.186;27.062;2022-08-01T15:03:25;4.43;;;2.47;;
25838;SDS011;13669;50.186;27.062;2022-08-01T15:05:52;3.40;;;2.63;;
25838;SDS011;13669;50.186;27.062;2022-08-01T15:08:20;4.50;;;3.10;;
25838;SDS011;13669;50.186;27.062;2022-08-01T15:10:48;2.50;;;1.95;;
25838;SDS011;13669;50.186;27.062;2022-08-01T15:13:15;5.35;;;2.60;;
25838;SDS011;13669;50.186;27.062;2022-08-01T15:15:43;3.67;;;2.50;;
25838;SDS011;13669;50.186;27.062;2022-08-01T15:18:10;5.22;;;2.80;;
25838;SDS011;13669;50.186;27.062;2022-08-01T15:20:38;3.70;;;2.65;;
25838;SDS011;13669;50.186;27.062;2022-08-01T15:23:06;7.22;;;3.10;;
25838;SDS011;13669;50.186;27.062;2022-08-01T15:25:33;3.92;;;2.95;;
25838;SDS011;13669;50.186;27.062;2022-08-01T15:28:08;4.05;;;2.95;;
25838;SDS011;13669;50.186;27.062;2022-08-01T15:30:36;4.60;;;3.35;;
25838;SDS011;13669;50.186;27.062;2022-08-01T15:33:04;3.78;;;3.28;;
25838;SDS011;13669;50.186;27.062;2022-08-01T15:35:32;4.72;;;3.47;;
25838;SDS011;13669;50.186;27.062;2022-08-01T15:37:59;5.45;;;3.90;;
25838;SDS011;13669;50.186;27.062;2022-08-01T15:40:27;6.28;;;3.45;;
25838;SDS011;13669;50.186;27.062;2022-08-01T15:42:55;4.93;;;3.58;;
25838;SDS011;13669;50.186;27.062;2022-08-01T15:45:23;5.35;;;3.33;;
25838;SDS011;13669;50.186;27.062;2022-08-01T15:48:10;5.93;;;3.45;;
25838;SDS011;13669;50.186;27.062;2022-08-01T15:50:38;10.02;;;3.80;;
25838;SDS011;13669;50.186;27.062;2022-08-01T15:53:05;4.93;;;3.83;;